sensor_id;sensor_type;location;lat;lon;timestamp;temperature;humidity
41318;DHT22;27067;51.554;7.026;2023-09-07T00:01:08;22.40;99.90
41318;DHT22;27067;51.554;7.026;2023-09-07T00:03:33;22.40;99.90
41318;DHT22;27067;51.554;7.026;2023-09-07T00:05:59;22.30;99.90
41318;DHT22;27067;51.554;7.026;2023-09-07T00:08:24;22.30;99.90
41318;DHT22;27067;51.554;7.026;2023-09-07T00:10:51;22.40;99.90
41318;DHT22;27067;51.554;7.026;2023-09-07T00:13:16;22.30;99.90
41318;DHT22;27067;51.554;7.026;2023-09-07T00:15:42;22.30;99.90
41318;DHT22;27067;51.554;7.026;2023-09-07T00:18:08;22.30;99.90
41318;DHT22;27067;51.554;7.026;2023-09-07T00:20:33;22.40;99.90
41318;DHT22;27067;51.554;7.026;2023-09-07T00:23:00;22.40;99.90
41318;DHT22;27067;51.554;7.026;2023-09-07T00:25:26;22.40;99.90
41318;DHT22;27067;51.554;7.026;2023-09-07T00:27:51;22.30;99.90
41318;DHT22;27067;51.554;7.026;2023-09-07T00:30:17;22.30;99.90
41318;DHT22;27067;51.554;7.026;2023-09-07T00:32:42;22.30;99.90
41318;DHT22;27067;51.554;7.026;2023-09-07T00:35:08;22.40;99.90
41318;DHT22;27067;51.554;7.026;2023-09-07T00:37:34;22.30;99.90
41318;DHT22;27067;51.554;7.026;2023-09-07T00:39:59;22.30;99.90
41318;DHT22;27067;51.554;7.026;2023-09-07T00:42:25;22.30;99.90
41318;DHT22;27067;51.554;7.026;2023-09-07T00:44:50;22.30;99.90
41318;DHT22;27067;51.554;7.026;2023-09-07T00:47:16;22.30;99.90
41318;DHT22;27067;51.554;7.026;2023-09-07T00:49:42;22.40;99.90
41318;DHT22;27067;51.554;7.026;2023-09-07T00:52:08;22.40;99.90
41318;DHT22;27067;51.554;7.026;2023-09-07T00:54:35;22.40;99.90
41318;DHT22;27067;51.554;7.026;2023-09-07T00:57:04;22.30;99.90
41318;DHT22;27067;51.554;7.026;2023-09-07T00:59:30;22.30;99.90
41318;DHT22;27067;51.554;7.026;2023-09-07T01:01:55;22.40;99.90
41318;DHT22;27067;51.554;7.026;2023-09-07T01:04:21;22.30;99.90
41318;DHT22;27067;51.554;7.026;2023-09-07T01:06:47;22.40;99.90
41318;DHT22;27067;51.554;7.026;2023-09-07T01:09:20;22.40;99.90
41318;DHT22;27067;51.554;7.026;2023-09-07T01:11:47;22.40;99.90
41318;DHT22;27067;51.554;7.026;2023-09-07T01:14:12;22.40;99.90
41318;DHT22;27067;51.554;7.026;2023-09-07T01:16:38;22.40;99.90
41318;DHT22;27067;51.554;7.026;2023-09-07T01:19:07;22.40;99.90
41318;DHT22;27067;51.554;7.026;2023-09-07T01:21:35;22.40;99.90
41318;DHT22;27067;51.554;7.026;2023-09-07T01:24:01;22.40;99.90
41318;DHT22;27067;51.554;7.026;2023-09-07T01:26:27;22.40;99.90
41318;DHT22;27067;51.554;7.026;2023-09-07T01:28:53;22.30;99.90
41318;DHT22;27067;51.554;7.026;2023-09-07T01:31:19;22.40;99.90
41318;DHT22;27067;51.554;7.026;2023-09-07T01:33:44;22.40;99.90
41318;DHT22;27067;51.554;7.026;2023-09-07T01:36:10;22.40;99.90
41318;DHT22;27067;51.554;7.026;2023-09-07T01:38:36;22.40;99.90
41318;DHT22;27067;51.554;7.026;2023-09-07T01:41:01;22.40;99.90
41318;DHT22;27067;51.554;7.026;2023-09-07T01:43:27;22.40;99.90
41318;DHT22;27067;51.554;7.026;2023-09-07T01:45:52;22.40;99.90
41318;DHT22;27067;51.554;7.026;2023-09-07T01:48:18;22.40;99.90
41318;DHT22;27067;51.554;7.026;2023-09-07T01:50:43;22.40;99.90
41318;DHT22;27067;51.554;7.026;2023-09-07T01:53:09;22.30;99.90
41318;DHT22;27067;51.554;7.026;2023-09-07T01:55:34;22.30;99.90
41318;DHT22;27067;51.554;7.026;2023-09-07T01:58:00;22.30;99.90
41318;DHT22;27067;51.554;7.026;2023-09-07T02:00:26;22.30;99.90
41318;DHT22;27067;51.554;7.026;2023-09-07T02:02:51;22.30;99.90
41318;DHT22;27067;51.554;7.026;2023-09-07T02:05:17;22.30;99.90
41318;DHT22;27067;51.554;7.026;2023-09-07T02:07:43;22.30;99.90
41318;DHT22;27067;51.554;7.026;2023-09-07T02:10:09;22.30;99.90
41318;DHT22;27067;51.554;7.026;2023-09-07T02:12:34;22.30;99.90
41318;DHT22;27067;51.554;7.026;2023-09-07T02:15:01;22.40;99.90
41318;DHT22;27067;51.554;7.026;2023-09-07T02:17:27;22.30;99.90
41318;DHT22;27067;51.554;7.026;2023-09-07T02:19:52;22.30;99.90
41318;DHT22;27067;51.554;7.026;2023-09-07T02:22:18;22.30;99.90
41318;DHT22;27067;51.554;7.026;2023-09-07T02:24:43;22.30;99.90
41318;DHT22;27067;51.554;7.026;2023-09-07T02:27:09;22.30;99.90
41318;DHT22;27067;51.554;7.026;2023-09-07T02:29:35;22.30;99.90
41318;DHT22;27067;51.554;7.026;2023-09-07T02:32:00;22.30;99.90
41318;DHT22;27067;51.554;7.026;2023-09-07T02:34:26;22.30;99.90
41318;DHT22;27067;51.554;7.026;2023-09-07T02:36:51;22.30;99.90
41318;DHT22;27067;51.554;7.026;2023-09-07T02:39:17;22.30;99.90
41318;DHT22;27067;51.554;7.026;2023-09-07T02:41:43;22.30;99.90
41318;DHT22;27067;51.554;7.026;2023-09-07T02:44:10;22.30;99.90
41318;DHT22;27067;51.554;7.026;2023-09-07T02:46:36;22.30;99.90
41318;DHT22;27067;51.554;7.026;2023-09-07T02:49:01;22.30;99.90
41318;DHT22;27067;51.554;7.026;2023-09-07T02:51:27;22.30;99.90
41318;DHT22;27067;51.554;7.026;2023-09-07T02:53:53;22.20;99.90
41318;DHT22;27067;51.554;7.026;2023-09-07T02:56:18;22.50;99.90
41318;DHT22;27067;51.554;7.026;2023-09-07T02:58:44;22.30;99.90
41318;DHT22;27067;51.554;7.026;2023-09-07T03:01:10;22.30;99.90
41318;DHT22;27067;51.554;7.026;2023-09-07T03:03:36;22.30;99.90
41318;DHT22;27067;51.554;7.026;2023-09-07T03:06:08;22.30;99.90
41318;DHT22;27067;51.554;7.026;2023-09-07T03:08:34;22.30;99.90
41318;DHT22;27067;51.554;7.026;2023-09-07T03:11:06;22.30;99.90
41318;DHT22;27067;51.554;7.026;2023-09-07T03:13:32;22.30;99.90
41318;DHT22;27067;51.554;7.026;2023-09-07T03:15:58;22.20;99.90
41318;DHT22;27067;51.554;7.026;2023-09-07T03:18:23;22.30;99.90
41318;DHT22;27067;51.554;7.026;2023-09-07T03:20:53;22.30;99.90
41318;DHT22;27067;51.554;7.026;2023-09-07T03:23:19;22.20;99.90
41318;DHT22;27067;51.554;7.026;2023-09-07T03:25:45;22.30;99.90
41318;DHT22;27067;51.554;7.026;2023-09-07T03:28:10;22.30;99.90
41318;DHT22;27067;51.554;7.026;2023-09-07T03:30:36;22.20;99.90
41318;DHT22;27067;51.554;7.026;2023-09-07T03:33:01;22.20;99.90
41318;DHT22;27067;51.554;7.026;2023-09-07T03:35:28;22.20;99.90
41318;DHT22;27067;51.554;7.026;2023-09-07T03:37:54;22.20;99.90
41318;DHT22;27067;51.554;7.026;2023-09-07T03:40:20;22.20;99.90
41318;DHT22;27067;51.554;7.026;2023-09-07T03:42:45;22.20;99.90
41318;DHT22;27067;51.554;7.026;2023-09-07T03:45:11;22.20;99.90
41318;DHT22;27067;51.554;7.026;2023-09-07T03:47:37;22.20;99.90
41318;DHT22;27067;51.554;7.026;2023-09-07T03:50:03;22.20;99.90
41318;DHT22;27067;51.554;7.026;2023-09-07T03:52:28;22.20;99.90
41318;DHT22;27067;51.554;7.026;2023-09-07T03:54:54;22.20;99.90
41318;DHT22;27067;51.554;7.026;2023-09-07T03:57:23;22.20;99.90
41318;DHT22;27067;51.554;7.026;2023-09-07T03:59:49;22.20;99.90
41318;DHT22;27067;51.554;7.026;2023-09-07T04:02:15;22.20;99.90
41318;DHT22;27067;51.554;7.026;2023-09-07T04:04:42;22.10;99.90
41318;DHT22;27067;51.554;7.026;2023-09-07T04:07:08;22.10;99.90
41318;DHT22;27067;51.554;7.026;2023-09-07T04:09:33;22.10;99.90
41318;DHT22;27067;51.554;7.026;2023-09-07T04:11:59;22.10;99.90
41318;DHT22;27067;51.554;7.026;2023-09-07T04:14:24;22.10;99.90
41318;DHT22;27067;51.554;7.026;2023-09-07T04:16:50;22.10;99.90
41318;DHT22;27067;51.554;7.026;2023-09-07T04:19:16;22.10;99.90
41318;DHT22;27067;51.554;7.026;2023-09-07T04:21:42;22.10;99.90
41318;DHT22;27067;51.554;7.026;2023-09-07T04:24:07;22.10;99.90
41318;DHT22;27067;51.554;7.026;2023-09-07T04:26:33;22.10;99.90
41318;DHT22;27067;51.554;7.026;2023-09-07T04:28:59;22.10;99.90
41318;DHT22;27067;51.554;7.026;2023-09-07T04:31:24;22.10;99.90
41318;DHT22;27067;51.554;7.026;2023-09-07T04:33:52;22.10;99.90
41318;DHT22;27067;51.554;7.026;2023-09-07T04:36:18;22.10;99.90
41318;DHT22;27067;51.554;7.026;2023-09-07T04:38:44;22.10;99.90
41318;DHT22;27067;51.554;7.026;2023-09-07T04:41:10;22.10;99.90
41318;DHT22;27067;51.554;7.026;2023-09-07T04:43:36;22.10;99.90
41318;DHT22;27067;51.554;7.026;2023-09-07T04:46:01;22.10;99.90
41318;DHT22;27067;51.554;7.026;2023-09-07T04:48:28;22.10;99.90
41318;DHT22;27067;51.554;7.026;2023-09-07T04:51:04;22.10;99.90
41318;DHT22;27067;51.554;7.026;2023-09-07T04:53:30;22.10;99.90
41318;DHT22;27067;51.554;7.026;2023-09-07T04:55:56;22.10;99.90
41318;DHT22;27067;51.554;7.026;2023-09-07T04:58:22;22.00;99.90
41318;DHT22;27067;51.554;7.026;2023-09-07T05:00:48;22.10;99.90
41318;DHT22;27067;51.554;7.026;2023-09-07T05:03:13;22.10;99.90
41318;DHT22;27067;51.554;7.026;2023-09-07T05:05:39;22.00;99.90
41318;DHT22;27067;51.554;7.026;2023-09-07T05:08:05;22.00;99.90
41318;DHT22;27067;51.554;7.026;2023-09-07T05:10:33;22.00;99.90
41318;DHT22;27067;51.554;7.026;2023-09-07T05:12:59;22.00;99.90
41318;DHT22;27067;51.554;7.026;2023-09-07T05:15:24;22.00;99.90
41318;DHT22;27067;51.554;7.026;2023-09-07T05:17:51;22.00;99.90
41318;DHT22;27067;51.554;7.026;2023-09-07T05:20:17;22.00;99.90
41318;DHT22;27067;51.554;7.026;2023-09-07T05:22:42;22.00;99.90
41318;DHT22;27067;51.554;7.026;2023-09-07T05:25:08;22.00;99.90
41318;DHT22;27067;51.554;7.026;2023-09-07T05:27:34;22.00;99.90
41318;DHT22;27067;51.554;7.026;2023-09-07T05:30:00;22.00;99.90
41318;DHT22;27067;51.554;7.026;2023-09-07T05:32:26;22.00;99.90
41318;DHT22;27067;51.554;7.026;2023-09-07T05:34:51;22.00;99.90
41318;DHT22;27067;51.554;7.026;2023-09-07T05:37:17;22.00;99.90
41318;DHT22;27067;51.554;7.026;2023-09-07T05:39:42;22.00;99.90
41318;DHT22;27067;51.554;7.026;2023-09-07T05:42:08;22.00;99.90
41318;DHT22;27067;51.554;7.026;2023-09-07T05:44:34;22.00;99.90
41318;DHT22;27067;51.554;7.026;2023-09-07T05:46:59;22.00;99.90
41318;DHT22;27067;51.554;7.026;2023-09-07T05:49:25;22.00;99.90
41318;DHT22;27067;51.554;7.026;2023-09-07T05:51:50;21.90;99.90
41318;DHT22;27067;51.554;7.026;2023-09-07T05:54:16;22.00;99.90
41318;DHT22;27067;51.554;7.026;2023-09-07T05:56:41;21.90;99.90
41318;DHT22;27067;51.554;7.026;2023-09-07T05:59:07;22.00;99.90
41318;DHT22;27067;51.554;7.026;2023-09-07T06:01:32;22.00;99.90
41318;DHT22;27067;51.554;7.026;2023-09-07T06:03:58;22.00;99.90
41318;DHT22;27067;51.554;7.026;2023-09-07T06:06:24;22.00;99.90
41318;DHT22;27067;51.554;7.026;2023-09-07T06:08:49;22.00;99.90
41318;DHT22;27067;51.554;7.026;2023-09-07T06:11:15;22.00;99.90
41318;DHT22;27067;51.554;7.026;2023-09-07T06:13:41;22.00;99.90
41318;DHT22;27067;51.554;7.026;2023-09-07T06:16:07;22.00;99.90
41318;DHT22;27067;51.554;7.026;2023-09-07T06:18:32;22.00;99.90
41318;DHT22;27067;51.554;7.026;2023-09-07T06:20:58;22.00;99.90
41318;DHT22;27067;51.554;7.026;2023-09-07T06:23:23;22.00;99.90
41318;DHT22;27067;51.554;7.026;2023-09-07T06:25:49;22.00;99.90
41318;DHT22;27067;51.554;7.026;2023-09-07T06:28:15;22.00;99.90
41318;DHT22;27067;51.554;7.026;2023-09-07T06:30:40;22.00;99.90
41318;DHT22;27067;51.554;7.026;2023-09-07T06:33:06;22.00;99.90
41318;DHT22;27067;51.554;7.026;2023-09-07T06:35:31;22.00;99.90
41318;DHT22;27067;51.554;7.026;2023-09-07T06:37:57;22.00;99.90
41318;DHT22;27067;51.554;7.026;2023-09-07T06:40:22;22.00;99.90
41318;DHT22;27067;51.554;7.026;2023-09-07T06:42:48;22.00;99.90
41318;DHT22;27067;51.554;7.026;2023-09-07T06:45:14;22.00;99.90
41318;DHT22;27067;51.554;7.026;2023-09-07T06:47:39;22.00;99.90
41318;DHT22;27067;51.554;7.026;2023-09-07T06:50:05;22.00;99.90
41318;DHT22;27067;51.554;7.026;2023-09-07T06:52:31;22.00;99.90
41318;DHT22;27067;51.554;7.026;2023-09-07T06:54:56;21.90;99.90
41318;DHT22;27067;51.554;7.026;2023-09-07T06:57:22;22.00;99.90
41318;DHT22;27067;51.554;7.026;2023-09-07T06:59:47;19.90;99.90
41318;DHT22;27067;51.554;7.026;2023-09-07T07:02:14;21.90;99.90
41318;DHT22;27067;51.554;7.026;2023-09-07T07:04:39;22.00;99.90
41318;DHT22;27067;51.554;7.026;2023-09-07T07:07:05;21.90;99.90
41318;DHT22;27067;51.554;7.026;2023-09-07T07:09:31;22.00;99.90
41318;DHT22;27067;51.554;7.026;2023-09-07T07:11:58;21.90;99.90
41318;DHT22;27067;51.554;7.026;2023-09-07T07:14:24;21.90;99.90
41318;DHT22;27067;51.554;7.026;2023-09-07T07:16:49;21.90;99.90
41318;DHT22;27067;51.554;7.026;2023-09-07T07:19:15;22.00;99.90
41318;DHT22;27067;51.554;7.026;2023-09-07T07:21:40;21.90;99.90
41318;DHT22;27067;51.554;7.026;2023-09-07T07:24:06;21.90;99.90
41318;DHT22;27067;51.554;7.026;2023-09-07T07:26:33;21.90;99.90
41318;DHT22;27067;51.554;7.026;2023-09-07T07:28:58;21.90;99.90
41318;DHT22;27067;51.554;7.026;2023-09-07T07:31:24;21.90;99.90
41318;DHT22;27067;51.554;7.026;2023-09-07T07:33:49;21.90;99.90
41318;DHT22;27067;51.554;7.026;2023-09-07T07:36:15;21.90;99.90
41318;DHT22;27067;51.554;7.026;2023-09-07T07:38:41;21.90;99.90
41318;DHT22;27067;51.554;7.026;2023-09-07T07:41:06;21.90;99.90
41318;DHT22;27067;51.554;7.026;2023-09-07T07:43:32;21.90;99.90
41318;DHT22;27067;51.554;7.026;2023-09-07T07:45:58;21.90;99.90
41318;DHT22;27067;51.554;7.026;2023-09-07T07:48:24;21.90;99.90
41318;DHT22;27067;51.554;7.026;2023-09-07T07:50:50;21.90;99.90
41318;DHT22;27067;51.554;7.026;2023-09-07T07:53:15;21.90;99.90
41318;DHT22;27067;51.554;7.026;2023-09-07T07:55:41;21.90;99.90
41318;DHT22;27067;51.554;7.026;2023-09-07T07:58:07;21.90;99.90
41318;DHT22;27067;51.554;7.026;2023-09-07T08:00:39;21.90;99.90
41318;DHT22;27067;51.554;7.026;2023-09-07T08:03:06;21.90;99.90
41318;DHT22;27067;51.554;7.026;2023-09-07T08:05:32;21.90;99.90
41318;DHT22;27067;51.554;7.026;2023-09-07T08:07:58;21.90;99.90
41318;DHT22;27067;51.554;7.026;2023-09-07T08:10:23;21.90;99.90
41318;DHT22;27067;51.554;7.026;2023-09-07T08:12:53;21.90;99.90
41318;DHT22;27067;51.554;7.026;2023-09-07T08:15:19;21.90;99.90
41318;DHT22;27067;51.554;7.026;2023-09-07T08:17:47;21.90;99.90
41318;DHT22;27067;51.554;7.026;2023-09-07T08:20:13;21.90;99.90
41318;DHT22;27067;51.554;7.026;2023-09-07T08:22:39;21.90;99.90
41318;DHT22;27067;51.554;7.026;2023-09-07T08:25:07;21.90;99.90
41318;DHT22;27067;51.554;7.026;2023-09-07T08:27:33;21.90;99.90
41318;DHT22;27067;51.554;7.026;2023-09-07T08:29:58;21.90;99.90
41318;DHT22;27067;51.554;7.026;2023-09-07T08:32:24;21.90;99.90
41318;DHT22;27067;51.554;7.026;2023-09-07T08:34:50;21.90;99.90
41318;DHT22;27067;51.554;7.026;2023-09-07T08:37:15;21.90;99.90
41318;DHT22;27067;51.554;7.026;2023-09-07T08:39:41;21.90;99.90
41318;DHT22;27067;51.554;7.026;2023-09-07T08:42:07;21.80;99.90
41318;DHT22;27067;51.554;7.026;2023-09-07T08:44:32;21.90;99.90
41318;DHT22;27067;51.554;7.026;2023-09-07T08:47:01;21.90;99.90
41318;DHT22;27067;51.554;7.026;2023-09-07T08:49:28;21.90;99.90
41318;DHT22;27067;51.554;7.026;2023-09-07T08:51:57;21.90;99.90
41318;DHT22;27067;51.554;7.026;2023-09-07T08:54:23;21.90;99.90
41318;DHT22;27067;51.554;7.026;2023-09-07T08:56:50;21.90;99.90
41318;DHT22;27067;51.554;7.026;2023-09-07T08:59:15;21.90;99.90
41318;DHT22;27067;51.554;7.026;2023-09-07T09:01:41;21.90;99.90
41318;DHT22;27067;51.554;7.026;2023-09-07T09:04:07;21.90;99.90
41318;DHT22;27067;51.554;7.026;2023-09-07T09:06:33;21.90;99.90
41318;DHT22;27067;51.554;7.026;2023-09-07T09:08:59;21.90;99.90
41318;DHT22;27067;51.554;7.026;2023-09-07T09:11:25;21.80;99.90
41318;DHT22;27067;51.554;7.026;2023-09-07T09:13:51;21.80;99.90
41318;DHT22;27067;51.554;7.026;2023-09-07T09:16:17;21.90;99.90
41318;DHT22;27067;51.554;7.026;2023-09-07T09:21:17;21.90;99.90
41318;DHT22;27067;51.554;7.026;2023-09-07T09:23:43;21.90;99.90
41318;DHT22;27067;51.554;7.026;2023-09-07T09:26:09;21.90;99.90
41318;DHT22;27067;51.554;7.026;2023-09-07T09:28:34;21.90;99.90
41318;DHT22;27067;51.554;7.026;2023-09-07T09:31:01;21.90;99.90
41318;DHT22;27067;51.554;7.026;2023-09-07T09:33:26;21.90;99.90
41318;DHT22;27067;51.554;7.026;2023-09-07T09:35:53;21.90;99.90
41318;DHT22;27067;51.554;7.026;2023-09-07T09:38:19;21.90;99.90
41318;DHT22;27067;51.554;7.026;2023-09-07T09:40:45;21.90;99.90
41318;DHT22;27067;51.554;7.026;2023-09-07T09:43:10;21.90;99.90
41318;DHT22;27067;51.554;7.026;2023-09-07T09:45:36;21.90;99.90
41318;DHT22;27067;51.554;7.026;2023-09-07T09:48:02;21.90;99.90
41318;DHT22;27067;51.554;7.026;2023-09-07T09:50:28;21.90;99.90
41318;DHT22;27067;51.554;7.026;2023-09-07T09:52:54;21.90;99.90
41318;DHT22;27067;51.554;7.026;2023-09-07T09:55:20;21.90;99.90
41318;DHT22;27067;51.554;7.026;2023-09-07T09:57:47;21.90;99.90
41318;DHT22;27067;51.554;7.026;2023-09-07T10:00:12;21.90;99.90
41318;DHT22;27067;51.554;7.026;2023-09-07T10:02:59;21.90;99.90
41318;DHT22;27067;51.554;7.026;2023-09-07T10:05:26;21.90;99.90
41318;DHT22;27067;51.554;7.026;2023-09-07T10:07:52;21.90;99.90
41318;DHT22;27067;51.554;7.026;2023-09-07T10:10:18;21.90;99.90
41318;DHT22;27067;51.554;7.026;2023-09-07T10:12:45;21.90;99.90
41318;DHT22;27067;51.554;7.026;2023-09-07T10:15:23;21.90;99.90
41318;DHT22;27067;51.554;7.026;2023-09-07T10:17:49;21.90;99.90
41318;DHT22;27067;51.554;7.026;2023-09-07T10:20:16;22.70;99.90
41318;DHT22;27067;51.554;7.026;2023-09-07T10:22:42;21.90;99.90
41318;DHT22;27067;51.554;7.026;2023-09-07T10:25:18;22.00;99.90
41318;DHT22;27067;51.554;7.026;2023-09-07T10:27:43;21.90;99.90
41318;DHT22;27067;51.554;7.026;2023-09-07T10:30:09;21.90;99.90
41318;DHT22;27067;51.554;7.026;2023-09-07T10:32:39;21.90;99.90
41318;DHT22;27067;51.554;7.026;2023-09-07T10:35:16;21.90;99.90
41318;DHT22;27067;51.554;7.026;2023-09-07T10:37:45;22.00;99.90
41318;DHT22;27067;51.554;7.026;2023-09-07T10:40:12;22.00;99.90
41318;DHT22;27067;51.554;7.026;2023-09-07T10:42:38;22.00;99.90
41318;DHT22;27067;51.554;7.026;2023-09-07T10:45:11;22.00;99.90
41318;DHT22;27067;51.554;7.026;2023-09-07T10:47:44;22.00;99.90
41318;DHT22;27067;51.554;7.026;2023-09-07T10:50:14;22.00;99.90
41318;DHT22;27067;51.554;7.026;2023-09-07T10:52:40;22.00;99.90
41318;DHT22;27067;51.554;7.026;2023-09-07T10:55:10;22.00;99.90
41318;DHT22;27067;51.554;7.026;2023-09-07T10:57:45;22.00;99.90
41318;DHT22;27067;51.554;7.026;2023-09-07T11:00:11;22.00;99.90
41318;DHT22;27067;51.554;7.026;2023-09-07T11:02:37;21.90;99.90
41318;DHT22;27067;51.554;7.026;2023-09-07T11:05:03;22.00;99.90
41318;DHT22;27067;51.554;7.026;2023-09-07T11:07:29;22.20;99.90
41318;DHT22;27067;51.554;7.026;2023-09-07T11:09:55;22.00;99.90
41318;DHT22;27067;51.554;7.026;2023-09-07T11:12:21;22.00;99.90
41318;DHT22;27067;51.554;7.026;2023-09-07T11:14:47;22.00;99.90
41318;DHT22;27067;51.554;7.026;2023-09-07T11:17:13;22.00;99.90
41318;DHT22;27067;51.554;7.026;2023-09-07T11:19:39;22.00;99.90
41318;DHT22;27067;51.554;7.026;2023-09-07T11:22:04;22.00;99.90
41318;DHT22;27067;51.554;7.026;2023-09-07T11:24:30;22.00;99.90
41318;DHT22;27067;51.554;7.026;2023-09-07T11:26:57;22.00;99.90
41318;DHT22;27067;51.554;7.026;2023-09-07T11:29:23;22.00;99.90
41318;DHT22;27067;51.554;7.026;2023-09-07T11:31:48;22.00;99.90
41318;DHT22;27067;51.554;7.026;2023-09-07T11:34:14;22.00;99.90
41318;DHT22;27067;51.554;7.026;2023-09-07T11:36:41;22.00;99.90
41318;DHT22;27067;51.554;7.026;2023-09-07T11:39:06;22.00;99.90
41318;DHT22;27067;51.554;7.026;2023-09-07T11:41:40;22.00;99.90
41318;DHT22;27067;51.554;7.026;2023-09-07T11:44:08;22.00;99.90
41318;DHT22;27067;51.554;7.026;2023-09-07T11:46:34;22.00;99.90
41318;DHT22;27067;51.554;7.026;2023-09-07T11:48:59;22.00;99.90
41318;DHT22;27067;51.554;7.026;2023-09-07T11:51:25;22.00;99.90
41318;DHT22;27067;51.554;7.026;2023-09-07T11:53:51;22.00;99.90
41318;DHT22;27067;51.554;7.026;2023-09-07T11:56:16;22.00;99.90
41318;DHT22;27067;51.554;7.026;2023-09-07T11:58:42;22.00;99.90
41318;DHT22;27067;51.554;7.026;2023-09-07T12:01:09;22.00;99.90
41318;DHT22;27067;51.554;7.026;2023-09-07T12:03:34;22.00;99.90
41318;DHT22;27067;51.554;7.026;2023-09-07T12:06:00;22.00;99.90
41318;DHT22;27067;51.554;7.026;2023-09-07T12:08:26;22.10;99.90
41318;DHT22;27067;51.554;7.026;2023-09-07T12:10:52;22.00;99.90
41318;DHT22;27067;51.554;7.026;2023-09-07T12:13:17;22.00;99.90
41318;DHT22;27067;51.554;7.026;2023-09-07T12:15:43;22.10;99.90
41318;DHT22;27067;51.554;7.026;2023-09-07T12:18:08;22.00;99.90
41318;DHT22;27067;51.554;7.026;2023-09-07T12:20:34;22.10;99.90
41318;DHT22;27067;51.554;7.026;2023-09-07T12:23:02;22.00;99.90
41318;DHT22;27067;51.554;7.026;2023-09-07T12:25:28;22.00;99.90
41318;DHT22;27067;51.554;7.026;2023-09-07T12:27:54;22.10;99.90
41318;DHT22;27067;51.554;7.026;2023-09-07T12:30:19;22.10;99.90
41318;DHT22;27067;51.554;7.026;2023-09-07T12:32:46;22.00;99.90
41318;DHT22;27067;51.554;7.026;2023-09-07T12:35:11;22.00;99.90
41318;DHT22;27067;51.554;7.026;2023-09-07T12:37:37;22.10;99.90
41318;DHT22;27067;51.554;7.026;2023-09-07T12:40:03;22.00;99.90
41318;DHT22;27067;51.554;7.026;2023-09-07T12:42:37;22.10;99.90
41318;DHT22;27067;51.554;7.026;2023-09-07T12:45:03;22.10;99.90
41318;DHT22;27067;51.554;7.026;2023-09-07T12:47:30;22.10;99.90
41318;DHT22;27067;51.554;7.026;2023-09-07T12:49:55;22.10;99.90
41318;DHT22;27067;51.554;7.026;2023-09-07T12:52:21;22.10;99.90
41318;DHT22;27067;51.554;7.026;2023-09-07T12:54:47;22.10;99.90
41318;DHT22;27067;51.554;7.026;2023-09-07T12:57:12;22.10;99.90
41318;DHT22;27067;51.554;7.026;2023-09-07T12:59:38;22.10;99.90
41318;DHT22;27067;51.554;7.026;2023-09-07T13:02:03;22.10;99.90
41318;DHT22;27067;51.554;7.026;2023-09-07T13:04:29;22.10;99.90
41318;DHT22;27067;51.554;7.026;2023-09-07T13:06:55;22.10;99.90
41318;DHT22;27067;51.554;7.026;2023-09-07T13:09:20;22.10;99.90
41318;DHT22;27067;51.554;7.026;2023-09-07T13:11:46;22.10;99.90
41318;DHT22;27067;51.554;7.026;2023-09-07T13:14:11;22.10;99.90
41318;DHT22;27067;51.554;7.026;2023-09-07T13:16:37;22.10;99.90
41318;DHT22;27067;51.554;7.026;2023-09-07T13:19:03;22.10;99.90
41318;DHT22;27067;51.554;7.026;2023-09-07T13:21:28;22.10;99.90
41318;DHT22;27067;51.554;7.026;2023-09-07T13:23:54;22.20;99.90
41318;DHT22;27067;51.554;7.026;2023-09-07T13:26:19;22.20;99.90
41318;DHT22;27067;51.554;7.026;2023-09-07T13:28:45;22.20;99.90
41318;DHT22;27067;51.554;7.026;2023-09-07T13:31:10;22.20;99.90
41318;DHT22;27067;51.554;7.026;2023-09-07T13:33:36;22.20;99.90
41318;DHT22;27067;51.554;7.026;2023-09-07T13:36:01;22.20;99.90
41318;DHT22;27067;51.554;7.026;2023-09-07T13:38:27;22.20;99.90
41318;DHT22;27067;51.554;7.026;2023-09-07T13:40:53;22.20;99.90
41318;DHT22;27067;51.554;7.026;2023-09-07T13:43:18;22.20;99.90
41318;DHT22;27067;51.554;7.026;2023-09-07T13:45:44;22.20;99.90
41318;DHT22;27067;51.554;7.026;2023-09-07T13:48:09;22.20;99.90
41318;DHT22;27067;51.554;7.026;2023-09-07T13:50:35;22.20;99.90
41318;DHT22;27067;51.554;7.026;2023-09-07T13:53:00;22.20;99.90
41318;DHT22;27067;51.554;7.026;2023-09-07T13:55:26;22.20;99.90
41318;DHT22;27067;51.554;7.026;2023-09-07T13:57:51;22.20;99.90
41318;DHT22;27067;51.554;7.026;2023-09-07T14:00:17;22.20;99.90
41318;DHT22;27067;51.554;7.026;2023-09-07T14:02:42;22.20;99.90
41318;DHT22;27067;51.554;7.026;2023-09-07T14:05:08;22.20;99.90
41318;DHT22;27067;51.554;7.026;2023-09-07T14:07:33;22.30;99.90
41318;DHT22;27067;51.554;7.026;2023-09-07T14:09:59;22.20;99.90
41318;DHT22;27067;51.554;7.026;2023-09-07T14:12:26;22.20;99.90
41318;DHT22;27067;51.554;7.026;2023-09-07T14:14:52;22.20;99.90
41318;DHT22;27067;51.554;7.026;2023-09-07T14:17:17;22.20;99.90
41318;DHT22;27067;51.554;7.026;2023-09-07T14:19:43;22.30;99.90
41318;DHT22;27067;51.554;7.026;2023-09-07T14:22:13;22.30;99.90
41318;DHT22;27067;51.554;7.026;2023-09-07T14:24:39;22.30;99.90
41318;DHT22;27067;51.554;7.026;2023-09-07T14:27:04;22.30;99.90
41318;DHT22;27067;51.554;7.026;2023-09-07T14:29:30;22.30;99.90
41318;DHT22;27067;51.554;7.026;2023-09-07T14:31:56;22.20;99.90
41318;DHT22;27067;51.554;7.026;2023-09-07T14:34:21;22.30;99.90
41318;DHT22;27067;51.554;7.026;2023-09-07T14:36:47;22.30;99.90
41318;DHT22;27067;51.554;7.026;2023-09-07T14:39:13;22.30;99.90
41318;DHT22;27067;51.554;7.026;2023-09-07T14:41:38;22.30;99.90
41318;DHT22;27067;51.554;7.026;2023-09-07T14:44:05;22.40;99.90
41318;DHT22;27067;51.554;7.026;2023-09-07T14:46:31;22.40;99.90
41318;DHT22;27067;51.554;7.026;2023-09-07T14:48:56;22.40;99.90
41318;DHT22;27067;51.554;7.026;2023-09-07T14:51:22;22.40;99.90
41318;DHT22;27067;51.554;7.026;2023-09-07T14:53:48;22.40;99.90
41318;DHT22;27067;51.554;7.026;2023-09-07T14:56:13;22.40;99.90
41318;DHT22;27067;51.554;7.026;2023-09-07T14:58:39;22.40;99.90
41318;DHT22;27067;51.554;7.026;2023-09-07T15:01:05;22.20;99.90
41318;DHT22;27067;51.554;7.026;2023-09-07T15:03:30;22.50;99.90
41318;DHT22;27067;51.554;7.026;2023-09-07T15:05:56;22.50;99.90
41318;DHT22;27067;51.554;7.026;2023-09-07T15:08:22;22.40;99.90
41318;DHT22;27067;51.554;7.026;2023-09-07T15:10:48;22.50;99.90
41318;DHT22;27067;51.554;7.026;2023-09-07T15:13:13;22.40;99.90
41318;DHT22;27067;51.554;7.026;2023-09-07T15:15:39;22.50;99.90
41318;DHT22;27067;51.554;7.026;2023-09-07T15:18:05;22.50;99.90
41318;DHT22;27067;51.554;7.026;2023-09-07T15:20:31;22.50;99.90
41318;DHT22;27067;51.554;7.026;2023-09-07T15:22:57;22.50;99.90
41318;DHT22;27067;51.554;7.026;2023-09-07T15:25:22;22.50;99.90